Time;durP1;ratioP1;P1;durP2;ratioP2;P2;SDS_P1;SDS_P2;PMS_P1;PMS_P2;Temp;Humidity;BMP_temperature;BMP_pressure;BME280_temperature;BME280_humidity;BME280_pressure;Samples;Min_cycle;Max_cycle;Signal;HPM_P1;HPM_P2
2022/10/17 00:02:22;;;;;;;21.45;9.23;;;;;;;13.52;100.00;101453.13;5049755;28;20040;-42
2022/10/17 00:04:48;;;;;;;20.38;8.85;;;;;;;13.50;100.00;101448.91;5050187;28;20079;-43
2022/10/17 00:07:13;;;;;;;22.50;9.45;;;;;;;13.51;100.00;101456.03;5049220;28;20348;-42
2022/10/17 00:09:42;;;;;;;18.85;9.65;;;;;;;13.50;100.00;101454.31;5048941;28;20064;-42
2022/10/17 00:12:07;;;;;;;23.55;9.77;;;;;;;13.49;100.00;101452.66;5050112;28;20100;-42
2022/10/17 00:14:33;;;;;;;22.15;9.27;;;;;;;13.49;100.00;101452.66;5049885;28;20109;-42
2022/10/17 00:16:58;;;;;;;23.92;9.32;;;;;;;13.48;100.00;101450.97;5051151;28;20029;-42
2022/10/17 00:19:24;;;;;;;19.63;9.80;;;;;;;13.48;100.00;101440.16;5055271;28;20061;-42
2022/10/17 00:21:49;;;;;;;22.40;9.88;;;;;;;13.47;100.00;101438.47;5056060;28;20021;-41
2022/10/17 00:24:14;;;;;;;27.08;11.68;;;;;;;13.44;100.00;101434.28;5056129;28;20087;-41
2022/10/17 00:26:40;;;;;;;29.60;12.27;;;;;;;13.43;100.00;101429.06;5050500;28;20024;-41
2022/10/17 00:29:05;;;;;;;23.92;11.00;;;;;;;13.45;100.00;101432.41;5056042;28;20039;-42
2022/10/17 00:31:30;;;;;;;25.35;12.13;;;;;;;13.41;100.00;101431.13;5055583;28;20381;-41
2022/10/17 00:33:56;;;;;;;28.77;11.55;;;;;;;13.41;100.00;101428.41;5055854;28;20344;-41
2022/10/17 00:36:23;;;;;;;21.08;11.48;;;;;;;13.37;100.00;101431.47;5054456;28;20036;-42
2022/10/17 00:38:52;;;;;;;33.47;12.13;;;;;;;13.37;100.00;101434.19;5055442;28;20040;-42
2022/10/17 00:41:20;;;;;;;25.95;12.25;;;;;;;13.38;100.00;101432.34;5054979;28;20025;-42
2022/10/17 00:43:54;;;;;;;28.60;11.85;;;;;;;13.38;100.00;101435.88;5056070;28;20388;-43
2022/10/17 00:46:21;;;;;;;26.50;12.52;;;;;;;13.39;100.00;101442.13;5055621;28;20032;-42
2022/10/17 00:48:48;;;;;;;25.60;12.60;;;;;;;13.36;100.00;101437.91;5055774;28;20060;-43
2022/10/17 00:51:14;;;;;;;29.65;12.75;;;;;;;13.37;100.00;101439.59;5055833;28;20021;-41
2022/10/17 00:53:40;;;;;;;27.48;12.70;;;;;;;13.39;100.00;101434.84;5054867;28;20025;-41
2022/10/17 00:56:05;;;;;;;35.58;13.18;;;;;;;13.37;100.00;101436.88;5054638;28;20479;-41
2022/10/17 00:58:30;;;;;;;31.52;14.85;;;;;;;13.36;100.00;101432.50;5055697;28;20025;-42
2022/10/17 01:00:56;;;;;;;33.13;15.50;;;;;;;13.37;100.00;101438.75;5054444;28;20503;-41
2022/10/17 01:03:21;;;;;;;39.17;14.50;;;;;;;13.34;100.00;101439.97;5055457;28;20123;-41
2022/10/17 01:05:47;;;;;;;30.38;14.60;;;;;;;13.38;100.00;101435.88;5055501;28;20017;-42
2022/10/17 01:08:13;;;;;;;32.15;14.77;;;;;;;13.43;100.00;101442.56;5054910;28;20442;-42
2022/10/17 01:10:58;;;;;;;32.42;14.70;;;;;;;13.45;100.00;101440.53;5054567;28;20329;-42
2022/10/17 01:13:47;;;;;;;34.28;14.70;;;;;;;13.46;100.00;101434.94;5052638;28;20222;-43
2022/10/17 01:16:17;;;;;;;34.35;16.13;;;;;;;13.47;100.00;101433.91;5053626;28;20025;-40
2022/10/17 01:18:45;;;;;;;31.55;15.55;;;;;;;13.44;100.00;101422.63;5052919;28;20398;-41
2022/10/17 01:21:16;;;;;;;;;;;;;;;13.44;100.00;101414.53;5055428;28;20060;-42
2022/10/17 01:24:07;;;;;;;32.58;16.23;;;;;;;13.44;100.00;101396.44;5055151;28;19913;-41
2022/10/17 01:26:51;;;;;;;30.85;16.42;;;;;;;13.39;100.00;101396.16;5053527;28;20084;-42
2022/10/17 01:29:39;;;;;;;37.65;17.52;;;;;;;13.36;100.00;101401.94;5052933;28;20025;-41
2022/10/17 01:32:16;;;;;;;46.50;18.48;;;;;;;13.32;100.00;101390.66;5050859;28;20032;-42
2022/10/17 01:34:48;;;;;;;37.63;17.48;;;;;;;13.29;100.00;101393.72;5049439;28;20033;-41
2022/10/17 01:37:29;;;;;;;40.15;18.45;;;;;;;13.29;100.00;101388.31;5049498;28;20037;-41
2022/10/17 01:39:58;;;;;;;40.80;18.80;;;;;;;13.28;100.00;101392.06;5050907;28;20039;-41
2022/10/17 01:42:27;;;;;;;46.22;19.60;;;;;;;13.32;100.00;101393.38;5050048;28;20029;-41
2022/10/17 01:44:58;;;;;;;45.00;20.02;;;;;;;13.32;100.00;101398.78;5051802;28;20032;-42
2022/10/17 01:47:27;;;;;;;45.40;19.23;;;;;;;13.29;100.00;101399.13;5049380;28;20479;-41
2022/10/17 01:49:53;;;;;;;42.10;19.27;;;;;;;13.35;100.00;101397.56;5050572;28;20041;-41
2022/10/17 01:52:25;;;;;;;37.92;19.15;;;;;;;13.31;100.00;101402.50;5050055;28;20032;-42
2022/10/17 01:54:54;;;;;;;44.78;21.27;;;;;;;13.31;100.00;101388.97;5050552;28;20117;-41
2022/10/17 01:57:36;;;;;;;37.70;19.67;;;;;;;13.34;100.00;101385.88;5050478;28;20029;-42
2022/10/17 02:00:04;;;;;;;41.03;20.27;;;;;;;13.34;100.00;101388.59;5050908;28;20025;-42
2022/10/17 02:02:29;;;;;;;;;;;;;;;13.36;100.00;101383.00;5050118;28;20025;-42
2022/10/17 02:04:55;;;;;;;42.67;20.50;;;;;;;13.38;100.00;101376.41;5050442;28;19908;-42
2022/10/17 02:07:21;;;;;;;43.35;21.88;;;;;;;13.37;100.00;101380.09;5049427;28;20136;-43
2022/10/17 02:09:47;;;;;;;52.40;22.33;;;;;;;13.36;100.00;101378.44;5052846;28;20155;-41
2022/10/17 02:12:23;;;;;;;41.58;21.30;;;;;;;13.36;100.00;101373.03;5052628;28;20036;-42
2022/10/17 02:15:19;;;;;;;43.08;20.88;;;;;;;13.39;100.00;101372.66;5050393;28;20032;-42
2022/10/17 02:18:06;;;;;;;44.00;21.45;;;;;;;13.37;100.00;101360.34;5050752;28;20408;-43
2022/10/17 02:20:50;;;;;;;42.58;20.33;;;;;;;13.36;100.00;101355.97;5051539;28;20417;-42
2022/10/17 02:23:25;;;;;;;43.28;21.42;;;;;;;13.37;100.00;101361.19;5048963;28;20028;-42
2022/10/17 02:26:09;;;;;;;42.83;22.25;;;;;;;13.38;100.00;101352.06;5051637;28;20036;-42
2022/10/17 02:28:50;;;;;;;45.63;20.95;;;;;;;13.42;100.00;101352.50;5051795;28;20033;-42
2022/10/17 02:31:20;;;;;;;42.42;22.30;;;;;;;13.41;100.00;101347.31;5051525;28;20439;-43
2022/10/17 02:33:53;;;;;;;47.50;22.80;;;;;;;13.38;100.00;101346.66;5049774;28;20543;-42
2022/10/17 02:36:22;;;;;;;49.83;22.83;;;;;;;13.37;100.00;101349.53;5050805;28;20111;-43
2022/10/17 02:38:49;;;;;;;47.42;22.88;;;;;;;13.39;100.00;101356.44;5049630;28;20051;-42
2022/10/17 02:41:17;;;;;;;46.88;21.42;;;;;;;13.42;100.00;101348.97;5048450;28;20017;-42
2022/10/17 02:43:44;;;;;;;38.95;21.10;;;;;;;13.41;100.00;101363.53;5050009;28;20040;-42
2022/10/17 02:46:11;;;;;;;50.20;20.98;;;;;;;13.44;100.00;101376.69;5049922;28;20442;-41
2022/10/17 02:48:41;;;;;;;48.97;20.95;;;;;;;13.46;100.00;101378.16;5051133;28;20091;-42
2022/10/17 02:51:15;;;;;;;50.20;21.25;;;;;;;13.53;100.00;101384.50;5049345;28;20487;-41
2022/10/17 02:53:49;;;;;;;43.60;20.80;;;;;;;13.60;100.00;101379.16;5050004;28;20028;-42
2022/10/17 02:56:19;;;;;;;43.47;21.48;;;;;;;13.61;100.00;101391.66;5051028;28;20032;-42
2022/10/17 02:58:49;;;;;;;41.80;20.23;;;;;;;13.66;100.00;101394.63;5049531;28;20400;-42
2022/10/17 03:01:15;;;;;;;43.50;20.75;;;;;;;13.72;100.00;101410.13;5049764;28;20036;-42
2022/10/17 03:03:40;;;;;;;39.90;20.95;;;;;;;13.74;100.00;101402.63;5049961;28;20029;-42
2022/10/17 03:06:06;;;;;;;40.67;20.90;;;;;;;13.82;100.00;101393.56;5050702;28;20028;-42
2022/10/17 03:08:31;;;;;;;42.35;20.33;;;;;;;13.89;100.00;101393.66;5050261;28;20076;-41
2022/10/17 03:10:56;;;;;;;40.33;19.08;;;;;;;13.92;100.00;101386.00;5050489;28;20029;-42
2022/10/17 03:13:22;;;;;;;44.47;19.40;;;;;;;13.96;100.00;101384.59;5050932;28;20032;-40
2022/10/17 03:15:47;;;;;;;43.42;20.38;;;;;;;14.00;100.00;101375.06;5051166;28;20448;-42
2022/10/17 03:18:12;;;;;;;46.80;18.35;;;;;;;14.08;100.00;101382.22;5051108;28;20487;-43
2022/10/17 03:20:38;;;;;;;41.55;19.35;;;;;;;14.15;100.00;101387.72;5050612;28;20045;-42
2022/10/17 03:23:03;;;;;;;37.00;18.83;;;;;;;14.15;100.00;101399.38;5049807;28;20504;-42
2022/10/17 03:25:28;;;;;;;36.45;18.88;;;;;;;14.21;100.00;101387.75;5050878;28;20025;-41
2022/10/17 03:27:54;;;;;;;37.88;19.00;;;;;;;14.23;100.00;101393.84;5050128;28;20364;-41
2022/10/17 03:30:19;;;;;;;48.53;19.92;;;;;;;14.30;100.00;101384.94;5047993;28;20025;-42
2022/10/17 03:32:45;;;;;;;40.40;19.13;;;;;;;14.34;100.00;101391.66;5050641;28;20020;-42
2022/10/17 03:35:10;;;;;;;44.50;18.83;;;;;;;14.39;100.00;101391.91;5050708;28;20388;-42
2022/10/17 03:37:36;;;;;;;41.75;18.13;;;;;;;14.39;100.00;101391.91;5050355;28;20041;-42
2022/10/17 03:40:01;;;;;;;43.38;18.33;;;;;;;14.37;100.00;101385.84;5049942;28;20055;-42
2022/10/17 03:42:26;;;;;;;43.75;17.77;;;;;;;14.39;100.00;101384.63;5050585;28;20459;-42
2022/10/17 03:44:52;;;;;;;45.58;18.35;;;;;;;14.38;100.00;101392.94;5050373;28;20052;-42
2022/10/17 03:47:17;;;;;;;39.63;18.73;;;;;;;14.38;100.00;101395.66;5050115;28;20083;-42
2022/10/17 03:49:43;;;;;;;38.15;18.65;;;;;;;14.37;100.00;101391.25;5049544;28;20036;-42
2022/10/17 03:52:11;;;;;;;47.00;17.85;;;;;;;14.36;100.00;101386.88;5049774;28;20083;-43
2022/10/17 03:54:37;;;;;;;46.50;19.52;;;;;;;14.38;100.00;101391.06;5049992;28;20033;-42
2022/10/17 03:57:02;;;;;;;35.25;18.15;;;;;;;14.40;100.00;101390.88;5050233;28;20104;-42
2022/10/17 03:59:28;;;;;;;42.15;19.02;;;;;;;14.39;100.00;101406.28;5049213;28;20029;-42
2022/10/17 04:01:53;;;;;;;38.47;18.90;;;;;;;14.45;100.00;101397.38;5048494;28;20083;-43
2022/10/17 04:04:18;;;;;;;39.58;19.58;;;;;;;14.49;100.00;101395.97;5047837;28;20020;-42
2022/10/17 04:06:44;;;;;;;42.85;18.45;;;;;;;14.53;100.00;101412.69;5049475;28;20025;-42
2022/10/17 04:09:10;;;;;;;40.88;18.00;;;;;;;14.59;100.00;101403.81;5048680;28;20029;-42
2022/10/17 04:11:35;;;;;;;43.55;17.48;;;;;;;14.61;100.00;101404.47;5049880;28;20285;-42
2022/10/17 04:14:00;;;;;;;36.75;17.77;;;;;;;14.71;100.00;101409.53;5048938;28;20017;-42
2022/10/17 04:16:27;;;;;;;33.17;17.25;;;;;;;14.79;100.00;101405.84;5049659;28;20032;-42
2022/10/17 04:18:54;;;;;;;40.00;18.63;;;;;;;14.79;100.00;101403.13;5049834;28;20399;-42
2022/10/17 04:21:19;;;;;;;37.67;16.90;;;;;;;14.85;100.00;101403.19;5048319;28;20025;-41
2022/10/17 04:23:45;;;;;;;34.97;16.92;;;;;;;14.92;100.00;101411.34;5049378;28;20033;-43
2022/10/17 04:26:10;;;;;;;40.03;17.15;;;;;;;14.88;100.00;101423.66;5049522;28;20043;-42
2022/10/17 04:28:36;;;;;;;38.95;16.38;;;;;;;14.92;100.00;101427.63;5049831;28;20104;-42
2022/10/17 04:31:03;;;;;;;32.03;16.67;;;;;;;14.97;100.00;101430.56;5049416;28;20033;-42
2022/10/17 04:33:29;;;;;;;;;;;;;;;15.01;100.00;101428.31;5049533;28;20025;-42
2022/10/17 04:35:59;;;;;;;38.92;15.45;;;;;;;15.01;100.00;101415.63;5047411;28;20265;-41
2022/10/17 04:38:25;;;;;;;38.47;15.32;;;;;;;15.01;100.00;101426.47;5048569;28;20534;-41
2022/10/17 04:40:51;;;;;;;29.08;14.63;;;;;;;15.05;100.00;101416.88;5047605;28;20111;-42
2022/10/17 04:43:16;;;;;;;37.17;16.10;;;;;;;15.05;100.00;101416.88;5049373;28;20482;-42
2022/10/17 04:45:42;;;;;;;37.45;15.07;;;;;;;15.05;100.00;101419.59;5049292;28;20086;-43
2022/10/17 04:48:07;;;;;;;38.13;15.85;;;;;;;15.07;100.00;101412.09;5049390;28;20492;-42
2022/10/17 04:50:32;;;;;;;39.00;15.38;;;;;;;15.08;100.00;101423.78;5049294;28;20368;-42
2022/10/17 04:52:58;;;;;;;36.08;15.88;;;;;;;15.13;100.00;101418.59;5049602;28;20537;-42
2022/10/17 04:55:23;;;;;;;39.55;15.65;;;;;;;15.14;100.00;101426.56;5048882;28;20021;-42
2022/10/17 04:57:49;;;;;;;37.03;15.68;;;;;;;15.19;100.00;101416.97;5049837;28;20112;-43
2022/10/17 05:00:14;;;;;;;44.38;15.02;;;;;;;15.18;100.00;101418.84;5048367;28;20116;-42
2022/10/17 05:02:39;;;;;;;32.45;14.95;;;;;;;15.27;100.00;101411.38;5050120;28;20123;-42
2022/10/17 05:05:05;;;;;;;31.27;15.07;;;;;;;15.31;100.00;101415.38;5050717;28;20171;-41
2022/10/17 05:07:30;;;;;;;32.72;14.57;;;;;;;15.35;100.00;101416.69;5051900;28;20041;-42
2022/10/17 05:09:57;;;;;;;26.38;13.95;;;;;;;15.37;100.00;101431.69;5052370;28;20387;-43
2022/10/17 05:12:23;;;;;;;31.65;14.15;;;;;;;15.37;100.00;101452.56;5053395;28;20439;-43
2022/10/17 05:14:48;;;;;;;39.53;15.48;;;;;;;15.38;100.00;101451.53;5051745;28;20037;-42
2022/10/17 05:17:13;;;;;;;35.45;14.60;;;;;;;15.42;100.00;101455.50;5051614;28;20108;-41
2022/10/17 05:19:39;;;;;;;31.02;15.30;;;;;;;15.45;100.00;101452.38;5052575;28;20096;-42
2022/10/17 05:22:04;;;;;;;27.58;13.70;;;;;;;15.49;100.00;101448.25;5053107;28;20029;-42
2022/10/17 05:24:29;;;;;;;32.03;14.60;;;;;;;15.52;100.00;101453.28;5050420;28;20036;-43
2022/10/17 05:26:55;;;;;;;26.88;14.25;;;;;;;15.55;100.00;101444.72;5051856;28;20025;-42
2022/10/17 05:29:21;;;;;;;30.58;13.93;;;;;;;15.55;100.00;101444.72;5052738;28;20017;-43
2022/10/17 05:31:46;;;;;;;29.33;13.52;;;;;;;15.52;100.00;101447.03;5052463;28;20025;-44
2022/10/17 05:34:11;;;;;;;25.92;13.70;;;;;;;15.52;100.00;101447.03;5050777;28;20039;-42
2022/10/17 05:36:37;;;;;;;33.22;14.63;;;;;;;15.52;100.00;101456.00;5052218;28;20016;-43
2022/10/17 05:39:02;;;;;;;30.75;13.63;;;;;;;15.51;100.00;101454.31;5051882;28;20025;-43
2022/10/17 05:41:27;;;;;;;32.38;14.27;;;;;;;15.52;100.00;101450.56;5042934;28;20039;-42
2022/10/17 05:43:53;;;;;;;28.00;13.50;;;;;;;15.53;100.00;101454.97;5032989;28;20347;-42
2022/10/17 05:46:18;;;;;;;29.70;13.77;;;;;;;15.50;100.00;101452.63;5033486;28;20116;-42
2022/10/17 05:48:43;;;;;;;35.13;13.88;;;;;;;15.49;100.00;101445.53;5033171;28;20101;-41
2022/10/17 05:51:09;;;;;;;35.78;14.60;;;;;;;15.47;100.00;101442.19;5045477;28;20060;-42
2022/10/17 05:53:37;;;;;;;38.08;13.95;;;;;;;15.47;100.00;101446.78;5050445;28;20147;-42
2022/10/17 05:56:04;;;;;;;36.63;14.00;;;;;;;15.48;100.00;101445.72;5051430;28;20332;-42
2022/10/17 05:58:31;;;;;;;36.28;14.73;;;;;;;15.45;100.00;101449.69;5051438;28;20435;-42
2022/10/17 06:01:02;;;;;;;24.75;14.07;;;;;;;15.44;100.00;101450.72;5050989;28;20407;-42
2022/10/17 06:03:28;;;;;;;30.60;14.07;;;;;;;15.43;100.00;101470.75;5048104;28;20353;-44
2022/10/17 06:05:53;;;;;;;26.80;13.98;;;;;;;15.42;100.00;101466.34;5047811;28;20033;-43
2022/10/17 06:08:19;;;;;;;37.45;15.20;;;;;;;15.40;100.00;101465.72;5045982;28;20132;-42
2022/10/17 06:10:48;;;;;;;31.20;14.75;;;;;;;15.38;100.00;101489.50;5050839;28;20068;-42
2022/10/17 06:13:14;;;;;;;44.70;16.02;;;;;;;15.41;100.00;101469.28;5050712;28;20025;-44
2022/10/17 06:15:40;;;;;;;28.40;15.55;;;;;;;15.39;100.00;101476.78;5046025;28;20075;-42
2022/10/17 06:18:05;;;;;;;36.42;15.65;;;;;;;15.36;100.00;101486.97;5051424;28;20020;-41
2022/10/17 06:20:30;;;;;;;30.88;15.18;;;;;;;15.36;100.00;101486.16;5051393;28;20167;-42
2022/10/17 06:22:56;;;;;;;34.00;15.07;;;;;;;15.33;100.00;101479.25;5051703;28;20027;-43
2022/10/17 06:25:21;;;;;;;36.67;16.17;;;;;;;15.37;100.00;101472.38;5051431;28;20090;-43
2022/10/17 06:27:46;;;;;;;36.00;16.42;;;;;;;15.42;100.00;101470.94;5051364;28;20021;-41
2022/10/17 06:30:12;;;;;;;41.95;16.55;;;;;;;15.44;100.00;101480.56;5050351;28;20542;-42
2022/10/17 06:32:37;;;;;;;39.20;17.17;;;;;;;15.47;100.00;101488.31;5050265;28;20029;-43
2022/10/17 06:35:03;;;;;;;33.85;16.33;;;;;;;15.49;100.00;101488.13;5050795;28;20413;-42
2022/10/17 06:37:32;;;;;;;42.60;16.48;;;;;;;15.50;100.00;101495.22;5048520;28;20131;-42
2022/10/17 06:39:57;;;;;;;30.73;15.05;;;;;;;15.50;100.00;101506.88;5051563;28;20027;-42
2022/10/17 06:42:23;;;;;;;41.72;14.95;;;;;;;15.52;100.00;101498.56;5043703;28;20455;-43
2022/10/17 06:44:48;;;;;;;32.22;13.80;;;;;;;15.51;100.00;101492.31;5037052;28;20033;-41
2022/10/17 06:47:13;;;;;;;33.22;15.27;;;;;;;15.53;100.00;101490.25;5051114;28;20037;-42
2022/10/17 06:49:39;;;;;;;35.83;15.50;;;;;;;15.55;100.00;101488.13;5051600;28;20112;-43
2022/10/17 06:52:04;;;;;;;36.92;14.73;;;;;;;15.55;100.00;101493.56;5051404;28;20388;-41
2022/10/17 06:54:29;;;;;;;35.83;15.65;;;;;;;15.55;100.00;101501.72;5052012;28;20101;-41
2022/10/17 06:56:55;;;;;;;36.75;15.73;;;;;;;15.58;100.00;101504.03;5051753;28;20029;-41
2022/10/17 06:59:21;;;;;;;34.08;15.10;;;;;;;15.61;100.00;101512.81;5050257;28;20395;-42
2022/10/17 07:01:46;;;;;;;43.80;15.68;;;;;;;15.61;100.00;101535.34;5047032;28;20032;-40
2022/10/17 07:04:12;;;;;;;33.80;14.35;;;;;;;15.65;100.00;101557.50;5051350;28;20033;-42
2022/10/17 07:06:37;;;;;;;27.00;15.10;;;;;;;15.66;100.00;101579.00;5051438;28;20057;-42
2022/10/17 07:09:05;;;;;;;33.17;14.90;;;;;;;15.72;100.00;101585.56;5051087;28;20460;-42
2022/10/17 07:11:30;;;;;;;;;;;;;;;15.71;100.00;101584.72;5051171;28;20028;-43
2022/10/17 07:13:56;;;;;;;39.30;14.73;;;;;;;15.77;100.00;101596.66;5051099;28;19908;-41
2022/10/17 07:16:21;;;;;;;35.38;15.73;;;;;;;15.82;100.00;101599.59;5050853;28;20048;-41
2022/10/17 07:18:50;;;;;;;31.70;15.40;;;;;;;15.83;100.00;101604.03;5048712;28;20112;-43
2022/10/17 07:21:15;;;;;;;31.45;15.85;;;;;;;15.87;100.00;101615.31;5050869;28;20036;-40
2022/10/17 07:23:41;;;;;;;29.20;16.48;;;;;;;15.86;100.00;101641.63;5051505;28;20033;-42
2022/10/17 07:26:09;;;;;;;32.63;15.63;;;;;;;15.85;100.00;101645.38;5050101;28;20033;-42
2022/10/17 07:28:37;;;;;;;37.58;16.15;;;;;;;15.87;100.00;101648.72;5030162;28;20526;-41
2022/10/17 07:31:07;;;;;;;36.40;16.80;;;;;;;15.89;100.00;101656.69;5034617;28;21477;-42
2022/10/17 07:33:32;;;;;;;34.72;16.55;;;;;;;15.91;100.00;101671.72;5045429;28;20564;-41
2022/10/17 07:36:01;;;;;;;40.45;17.00;;;;;;;15.93;100.00;101685.97;5046757;28;20032;-41
2022/10/17 07:38:27;;;;;;;31.63;16.65;;;;;;;15.94;100.00;101681.34;5044970;28;20028;-42
2022/10/17 07:40:57;;;;;;;42.92;17.88;;;;;;;15.91;100.00;101674.44;5047199;28;20060;-44
2022/10/17 07:43:23;;;;;;;35.10;16.52;;;;;;;15.88;100.00;101688.41;5047850;28;20100;-45
2022/10/17 07:45:49;;;;;;;48.25;17.92;;;;;;;15.84;100.00;101706.13;5048163;28;20452;-41
2022/10/17 07:48:14;;;;;;;38.00;17.50;;;;;;;15.78;100.00;101715.06;5048007;28;20021;-41
2022/10/17 07:50:40;;;;;;;44.88;18.20;;;;;;;15.75;100.00;101729.03;5047923;28;20125;-42
2022/10/17 07:53:05;;;;;;;36.75;17.52;;;;;;;15.70;100.00;101723.34;5048029;28;20141;-42
2022/10/17 07:55:30;;;;;;;47.20;18.92;;;;;;;15.68;100.00;101728.91;5047848;28;20501;-41
2022/10/17 07:57:56;;;;;;;45.00;18.83;;;;;;;15.64;100.00;101743.06;5047574;28;20028;-42
2022/10/17 08:00:21;;;;;;;45.35;19.30;;;;;;;15.62;100.00;101745.97;5046340;28;20024;-42
2022/10/17 08:02:47;;;;;;;42.58;19.23;;;;;;;15.56;100.00;101736.75;5046336;28;20056;-44
2022/10/17 08:05:12;;;;;;;47.58;19.73;;;;;;;15.57;100.00;101734.84;5047661;28;20110;-45
2022/10/17 08:07:39;;;;;;;46.42;18.55;;;;;;;15.56;100.00;101728.59;5042719;28;20492;-40
2022/10/17 08:10:05;;;;;;;57.28;22.00;;;;;;;15.55;100.00;101740.47;5046643;28;20125;-40
2022/10/17 08:12:33;;;;;;;48.88;21.08;;;;;;;15.54;100.00;101744.22;5047430;28;20256;-39
2022/10/17 08:14:58;;;;;;;46.00;19.45;;;;;;;15.51;100.00;101736.47;5047452;28;20021;-40
2022/10/17 08:17:24;;;;;;;46.80;19.63;;;;;;;15.52;100.00;101734.59;5044691;28;20120;-42
2022/10/17 08:19:49;;;;;;;54.45;18.98;;;;;;;15.48;100.00;101726.00;5039316;28;20028;-43
2022/10/17 08:22:14;;;;;;;47.30;20.25;;;;;;;15.47;100.00;101704.50;5045356;28;20102;-44
2022/10/17 08:24:41;;;;;;;38.53;20.20;;;;;;;15.50;100.00;101706.81;5049791;28;20454;-40
2022/10/17 08:27:10;;;;;;;48.53;21.33;;;;;;;15.49;100.00;101713.28;5051024;28;20350;-43
2022/10/17 08:29:36;;;;;;;54.97;22.27;;;;;;;15.47;100.00;101716.19;5050249;28;20035;-43
2022/10/17 08:32:02;;;;;;;43.75;20.67;;;;;;;15.45;100.00;101720.94;5050167;28;20123;-46
2022/10/17 08:34:27;;;;;;;44.35;21.02;;;;;;;15.46;100.00;101717.22;5045952;28;20494;-46
2022/10/17 08:36:53;;;;;;;45.65;21.17;;;;;;;15.45;100.00;101712.81;5040337;28;20040;-44
2022/10/17 08:39:18;;;;;;;49.03;20.33;;;;;;;15.44;100.00;101702.16;5051224;28;20036;-46
2022/10/17 08:41:59;;;;;;;48.17;22.33;;;;;;;15.42;100.00;101693.38;5051785;28;20098;-45
2022/10/17 08:44:34;;;;;;;44.10;22.40;;;;;;;15.43;100.00;101690.50;5051631;28;20125;-46
2022/10/17 08:47:03;;;;;;;52.67;22.55;;;;;;;15.44;100.00;101697.56;5053028;28;20087;-46
2022/10/17 08:49:31;;;;;;;52.45;21.58;;;;;;;15.45;100.00;101704.66;5053190;28;20152;-45
2022/10/17 08:52:03;;;;;;;;;;;;;;;15.47;100.00;101716.19;5053462;28;20041;-44
2022/10/17 08:54:41;;;;;;;52.92;23.50;;;;;;;15.47;100.00;101718.88;5048846;28;20250;-43
2022/10/17 08:57:12;;;;;;;54.70;23.95;;;;;;;15.47;100.00;101751.44;5047098;28;20080;-44
2022/10/17 08:59:37;;;;;;;64.55;24.30;;;;;;;15.49;100.00;101762.13;5054033;28;20033;-43
2022/10/17 09:02:07;;;;;;;47.78;22.85;;;;;;;15.49;100.00;101762.94;5052301;28;20151;-44
2022/10/17 09:04:48;;;;;;;62.10;25.00;;;;;;;15.49;100.00;101771.09;5051672;28;20138;-43
2022/10/17 09:07:34;;;;;;;55.97;23.88;;;;;;;15.50;100.00;101751.06;5053772;28;20449;-45
2022/10/17 09:10:22;;;;;;;53.63;22.70;;;;;;;15.50;100.00;101753.75;5053823;28;20471;-45
2022/10/17 09:13:05;;;;;;;57.55;22.02;;;;;;;15.51;100.00;101739.19;5038384;28;20548;-43
2022/10/17 09:15:42;;;;;;;56.88;24.48;;;;;;;15.54;100.00;101736.09;5053787;28;20025;-45
2022/10/17 09:18:16;;;;;;;63.40;24.80;;;;;;;15.54;100.00;101735.25;5053524;28;20028;-45
2022/10/17 09:20:54;;;;;;;52.42;23.83;;;;;;;15.55;100.00;101732.31;5053845;28;20052;-44
2022/10/17 09:23:22;;;;;;;59.22;23.65;;;;;;;15.56;100.00;101742.16;5045128;28;20425;-42
2022/10/17 09:25:51;;;;;;;57.33;26.08;;;;;;;15.59;100.00;101744.50;5032646;28;20040;-43
2022/10/17 09:28:43;;;;;;;63.08;22.42;;;;;;;15.57;100.00;101773.69;5045836;28;20033;-42
2022/10/17 09:31:19;;;;;;;50.08;21.88;;;;;;;15.54;100.00;101779.50;5050727;28;20041;-42
2022/10/17 09:33:46;;;;;;;50.80;21.02;;;;;;;15.53;100.00;101788.69;5040264;28;20373;-43
2022/10/17 09:36:18;;;;;;;48.07;20.90;;;;;;;15.53;100.00;101804.09;5047261;28;20025;-41
2022/10/17 09:38:47;;;;;;;56.92;20.83;;;;;;;15.48;100.00;101811.97;5053739;28;20396;-42
2022/10/17 09:41:17;;;;;;;45.17;20.38;;;;;;;15.48;100.00;101804.69;5047112;28;20449;-43
2022/10/17 09:43:44;;;;;;;56.53;20.85;;;;;;;15.51;100.00;101812.44;5052473;28;20428;-41
2022/10/17 09:46:30;;;;;;;49.47;20.08;;;;;;;15.49;100.00;101814.50;5053743;28;20036;-43
2022/10/17 09:49:00;;;;;;;49.55;18.27;;;;;;;15.53;100.00;101821.25;5051617;28;20500;-45
2022/10/17 09:51:26;;;;;;;58.80;18.83;;;;;;;15.51;100.00;101817.88;5050328;28;20404;-45
2022/10/17 09:53:55;;;;;;;44.33;19.50;;;;;;;15.50;100.00;101827.03;5052666;28;20033;-46
2022/10/17 09:56:20;;;;;;;56.08;20.23;;;;;;;15.52;100.00;101833.09;5052592;28;20032;-45
2022/10/17 09:58:53;;;;;;;37.38;17.55;;;;;;;15.49;100.00;101833.50;5051561;28;20080;-46
2022/10/17 10:01:27;;;;;;;42.17;19.67;;;;;;;15.46;100.00;101833.88;5051890;28;20403;-46
2022/10/17 10:04:14;;;;;;;49.58;18.90;;;;;;;15.46;100.00;101838.47;5053159;28;20116;-43
2022/10/17 10:06:40;;;;;;;51.55;20.08;;;;;;;15.44;100.00;101844.06;5052950;28;20032;-46
2022/10/17 10:09:28;;;;;;;41.33;18.85;;;;;;;15.46;100.00;101852.88;5051092;28;20060;-48
2022/10/17 10:11:55;;;;;;;43.42;18.98;;;;;;;15.45;100.00;101859.31;5052355;28;20052;-46
2022/10/17 10:14:32;;;;;;;40.17;18.92;;;;;;;15.44;100.00;101859.50;5052338;28;20029;-48
2022/10/17 10:16:58;;;;;;;40.80;18.75;;;;;;;15.47;100.00;101869.97;5052650;28;20361;-47
2022/10/17 10:19:37;;;;;;;46.75;19.08;;;;;;;15.48;100.00;101888.78;5050644;28;20028;-46
2022/10/17 10:22:18;;;;;;;46.00;17.88;;;;;;;15.49;100.00;101889.63;5050901;28;20106;-43
2022/10/17 10:24:44;;;;;;;39.33;16.58;;;;;;;15.49;100.00;101895.88;5033228;28;20029;-44
2022/10/17 10:27:16;;;;;;;24.77;12.43;;;;;;;15.29;100.00;101890.19;5031705;28;20033;-45
2022/10/17 10:29:48;;;;;;;27.00;11.60;;;;;;;15.18;100.00;101884.41;5033556;28;20074;-44
2022/10/17 10:32:26;;;;;;;27.17;10.77;;;;;;;15.10;100.00;101886.16;5051163;28;20029;-48
2022/10/17 10:35:00;;;;;;;24.40;11.50;;;;;;;15.12;100.00;101900.38;5049406;28;20029;-47
2022/10/17 10:37:28;;;;;;;27.33;11.77;;;;;;;15.11;100.00;101898.72;5047641;28;20033;-44
2022/10/17 10:39:57;;;;;;;25.50;11.20;;;;;;;15.11;100.00;101900.56;5053015;28;20108;-44
2022/10/17 10:42:32;;;;;;;27.02;11.30;;;;;;;15.10;100.00;101897.00;5051789;28;20029;-43
2022/10/17 10:45:14;;;;;;;22.65;9.60;;;;;;;15.06;100.00;101909.28;5049807;28;20029;-44
2022/10/17 10:47:51;;;;;;;24.23;10.40;;;;;;;15.06;100.00;101917.41;5050386;28;20079;-42
2022/10/17 10:50:23;;;;;;;;;;;;;;;15.03;100.00;101911.50;5040661;28;20040;-41
2022/10/17 10:53:12;;;;;;;20.25;9.88;;;;;;;15.00;100.00;101903.75;5050311;28;19919;-41
2022/10/17 10:55:59;;;;;;;23.15;8.35;;;;;;;15.01;100.00;101903.56;5047704;28;20029;-41
2022/10/17 10:58:33;;;;;;;28.58;9.70;;;;;;;14.93;100.00;101896.34;5048703;28;20036;-40
2022/10/17 11:01:05;;;;;;;21.95;9.10;;;;;;;14.97;100.00;101893.25;5049098;28;20044;-40
2022/10/17 11:03:36;;;;;;;27.17;9.13;;;;;;;15.00;100.00;101885.59;5049792;28;20033;-42
2022/10/17 11:06:11;;;;;;;21.60;9.02;;;;;;;15.09;100.00;101879.06;5051447;28;20029;-42
2022/10/17 11:08:59;;;;;;;16.33;7.57;;;;;;;15.07;100.00;101888.41;5049261;28;20044;-41
2022/10/17 11:11:37;;;;;;;19.75;6.78;;;;;;;15.08;100.00;101915.31;5039939;28;20082;-42
2022/10/17 11:14:04;;;;;;;;;;;;;;;15.17;100.00;101921.53;5050370;28;20472;-41